createdAt,value
2023-04-21T00:01:30.326Z,5.78
2023-04-21T00:06:37.001Z,5.40
2023-04-21T00:11:43.334Z,5.43
2023-04-21T00:16:53.228Z,4.97
2023-04-21T00:22:01.507Z,4.50
2023-04-21T00:27:07.768Z,4.95
2023-04-21T00:32:15.574Z,4.80
2023-04-21T00:37:21.784Z,4.78
2023-04-21T00:42:28.170Z,4.63
2023-04-21T00:47:36.061Z,4.95
2023-04-21T00:52:44.222Z,4.65
2023-04-21T00:57:52.660Z,4.57
2023-04-21T01:03:02.360Z,5.43
2023-04-21T01:08:09.355Z,5.45
2023-04-21T01:13:15.835Z,3.95
2023-04-21T01:18:23.492Z,4.43
2023-04-21T01:23:31.475Z,5.03
2023-04-21T01:28:37.790Z,5.07
2023-04-21T01:33:44.044Z,4.13
2023-04-21T01:38:51.754Z,4.40
2023-04-21T01:43:58.375Z,4.53
2023-04-21T01:49:04.682Z,3.85
2023-04-21T01:54:14.705Z,4.40
2023-04-21T01:59:21.327Z,3.93
2023-04-21T02:04:28.299Z,3.85
2023-04-21T02:09:36.231Z,4.05
2023-04-21T02:14:45.584Z,4.32
2023-04-21T02:19:52.662Z,3.95
2023-04-21T02:25:02.486Z,3.83
2023-04-21T02:30:11.525Z,3.73
2023-04-21T02:35:17.941Z,3.90
2023-04-21T02:40:25.628Z,3.95
2023-04-21T02:45:32.242Z,3.75
2023-04-21T02:50:38.642Z,3.40
2023-04-21T02:55:46.860Z,4.20
2023-04-21T03:00:53.246Z,3.95
2023-04-21T03:05:59.991Z,4.07
2023-04-21T03:11:07.719Z,4.70
2023-04-21T03:16:14.180Z,4.10
2023-04-21T03:21:23.655Z,3.45
2023-04-21T03:26:31.649Z,4.13
2023-04-21T03:31:37.981Z,5.30
2023-04-21T03:36:44.297Z,5.05
2023-04-21T03:41:52.109Z,4.78
2023-04-21T03:46:58.368Z,4.20
2023-04-21T03:52:04.854Z,4.70
2023-04-21T03:57:12.589Z,4.82
2023-04-21T04:02:19.094Z,3.85
2023-04-21T04:07:25.402Z,4.43
2023-04-21T04:12:33.566Z,4.38
2023-04-21T04:17:40.045Z,3.63
2023-04-21T04:22:46.970Z,5.05
2023-04-21T04:27:56.062Z,4.72
2023-04-21T04:33:02.731Z,4.65
2023-04-21T04:38:09.291Z,4.20
2023-04-21T04:43:17.319Z,4.60
2023-04-21T04:48:24.885Z,4.50
2023-04-21T04:53:31.703Z,4.82
2023-04-21T04:58:39.545Z,4.47
2023-04-21T05:03:47.417Z,5.00
2023-04-21T05:08:54.074Z,5.10
2023-04-21T05:14:02.679Z,5.45
2023-04-21T05:19:09.216Z,4.97
2023-04-21T05:24:15.725Z,4.43
2023-04-21T05:29:23.801Z,3.63
2023-04-21T05:34:30.441Z,4.40
2023-04-21T05:39:36.921Z,4.18
2023-04-21T05:44:44.789Z,5.78
2023-04-21T05:49:54.178Z,6.72
2023-04-21T05:55:01.027Z,6.95
2023-04-21T06:00:11.398Z,5.45
2023-04-21T06:05:18.020Z,3.90
2023-04-21T06:10:24.536Z,3.17
2023-04-21T06:15:32.431Z,4.03
2023-04-21T06:20:38.884Z,3.45
2023-04-21T06:25:45.291Z,3.40
2023-04-21T06:30:53.102Z,3.67
2023-04-21T06:35:59.499Z,3.60
2023-04-21T06:41:06.933Z,3.75
2023-04-21T06:46:15.035Z,3.92
2023-04-21T06:51:21.358Z,3.33
2023-04-21T06:56:29.607Z,3.22
2023-04-21T07:01:37.452Z,3.27
2023-04-21T07:06:43.955Z,3.22
2023-04-21T07:11:50.153Z,3.45
2023-04-21T07:16:58.338Z,2.85
2023-04-21T07:22:04.921Z,3.58
2023-04-21T07:27:11.663Z,3.05
2023-04-21T07:32:19.612Z,2.47
2023-04-21T07:37:27.486Z,2.87
2023-04-21T07:42:33.751Z,3.13
2023-04-21T07:47:41.781Z,3.75
2023-04-21T07:52:49.204Z,3.00
2023-04-21T07:57:56.379Z,1.90
2023-04-21T08:03:04.369Z,2.10
2023-04-21T08:08:11.022Z,2.53
2023-04-21T08:13:17.730Z,2.78
2023-04-21T08:18:25.851Z,2.33
2023-04-21T08:23:32.686Z,2.70
2023-04-21T08:28:39.628Z,1.90
2023-04-21T08:34:00.432Z,2.47
2023-04-21T08:39:08.444Z,3.22
2023-04-21T08:44:16.194Z,2.30
2023-04-21T08:49:26.052Z,1.85
2023-04-21T08:54:32.645Z,1.70
2023-04-21T08:59:39.526Z,2.38
2023-04-21T09:04:49.701Z,2.03
2023-04-21T09:09:58.754Z,1.77
2023-04-21T09:15:08.256Z,1.90
2023-04-21T09:20:21.838Z,2.60
2023-04-21T09:25:28.494Z,1.73
2023-04-21T09:30:38.315Z,3.90
2023-04-21T09:35:46.259Z,2.80
2023-04-21T09:41:00.235Z,2.67
2023-04-21T09:46:07.541Z,2.10
2023-04-21T09:56:31.527Z,3.05
2023-04-21T10:01:39.468Z,2.17
2023-04-21T10:06:48.851Z,1.67
2023-04-21T10:11:56.002Z,2.17
2023-04-21T10:17:08.407Z,1.90
2023-04-21T10:22:28.027Z,3.30
2023-04-21T10:27:37.828Z,1.75
2023-04-21T10:32:45.789Z,1.60
2023-04-21T10:37:53.680Z,1.65
2023-04-21T10:43:00.052Z,1.50
2023-04-21T10:48:16.272Z,2.00
2023-04-21T10:53:28.875Z,1.80
2023-04-21T10:58:37.018Z,2.25
2023-04-21T11:03:43.666Z,1.97
2023-04-21T11:09:00.895Z,1.45
2023-04-21T11:14:08.116Z,1.70
2023-04-21T11:19:16.931Z,1.80
2023-04-21T11:24:25.392Z,1.88
2023-04-21T11:29:32.389Z,1.35
2023-04-21T11:34:39.750Z,1.95
2023-04-21T11:39:47.602Z,1.33
2023-04-21T11:44:57.697Z,1.47
2023-04-21T11:50:04.814Z,1.45
2023-04-21T11:55:19.849Z,2.03
2023-04-21T12:00:31.290Z,1.33
2023-04-21T12:05:38.221Z,1.55
2023-04-21T12:10:50.457Z,1.85
2023-04-21T12:15:57.228Z,1.00
2023-04-21T12:21:04.866Z,1.52
2023-04-21T12:26:13.118Z,1.60
2023-04-21T12:31:20.509Z,1.77
2023-04-21T12:36:28.284Z,1.75
2023-04-21T12:41:36.221Z,2.60
2023-04-21T12:46:42.536Z,1.40
2023-04-21T12:51:48.912Z,1.75
2023-04-21T12:56:56.865Z,1.98
2023-04-21T13:02:03.565Z,1.50
2023-04-21T13:07:10.978Z,1.60
2023-04-21T13:12:18.924Z,1.77
2023-04-21T13:17:25.434Z,1.67
2023-04-21T13:22:32.158Z,1.67
2023-04-21T13:27:40.649Z,2.33
2023-04-21T13:32:47.164Z,1.60
2023-04-21T13:37:54.704Z,1.40
2023-04-21T13:43:02.660Z,1.80
2023-04-21T13:48:09.071Z,1.60
2023-04-21T13:53:17.654Z,2.78
2023-04-21T13:58:27.463Z,1.70
2023-04-21T14:03:34.153Z,4.17
2023-04-21T14:08:41.157Z,1.67
2023-04-21T14:14:07.526Z,1.67
2023-04-21T14:19:15.925Z,4.82
2023-04-21T14:24:23.288Z,2.38
2023-04-21T14:29:31.390Z,2.45
2023-04-21T14:34:38.222Z,1.55
2023-04-21T14:39:44.987Z,1.58
2023-04-21T14:44:53.076Z,1.70
2023-04-21T14:49:59.855Z,1.75
2023-04-21T14:55:07.087Z,1.67
2023-04-21T15:00:16.874Z,2.00
2023-04-21T15:05:23.779Z,1.63
2023-04-21T15:10:32.740Z,2.35
2023-04-21T15:15:41.866Z,1.73
2023-04-21T15:20:48.819Z,1.80
2023-04-21T15:25:55.671Z,2.08
2023-04-21T15:31:03.900Z,1.40
2023-04-21T15:36:10.541Z,1.80
2023-04-21T15:41:17.970Z,2.08
2023-04-21T15:46:26.063Z,2.55
2023-04-21T15:51:36.144Z,1.77
2023-04-21T15:56:43.033Z,1.75
2023-04-21T16:01:51.680Z,1.60
2023-04-21T16:06:58.084Z,1.55
2023-04-21T16:12:08.935Z,1.90
2023-04-21T16:17:16.929Z,2.55
2023-04-21T16:22:23.634Z,2.30
2023-04-21T16:27:30.401Z,2.53
2023-04-21T16:32:38.630Z,3.20
2023-04-21T16:37:45.951Z,6.82
2023-04-21T16:42:52.896Z,17.00
2023-04-21T16:48:01.069Z,66.47
2023-04-21T16:53:07.782Z,80.93
2023-04-21T16:58:14.257Z,39.58
2023-04-21T17:03:22.833Z,16.35
2023-04-21T17:13:43.784Z,11.45
2023-04-21T17:18:55.192Z,30.80
2023-04-21T17:24:02.269Z,31.77
2023-04-21T17:29:09.499Z,36.60
2023-04-21T17:34:17.594Z,40.47
2023-04-21T17:39:24.240Z,57.33
2023-04-21T17:44:30.602Z,84.25
2023-04-21T17:49:38.939Z,84.03
2023-04-21T17:54:45.946Z,69.43
2023-04-21T17:59:55.954Z,70.80
2023-04-21T18:05:04.983Z,69.32
2023-04-21T18:10:12.550Z,65.53
2023-04-21T18:15:19.715Z,58.45
2023-04-21T18:20:27.912Z,53.38
2023-04-21T18:30:47.516Z,45.55
2023-04-21T18:35:57.328Z,35.60
2023-04-21T18:41:05.465Z,32.72
2023-04-21T18:46:14.283Z,34.70
2023-04-21T18:51:30.276Z,31.92
2023-04-21T18:56:41.871Z,29.05
2023-04-21T19:01:50.075Z,26.92
2023-04-21T19:06:59.594Z,25.52
2023-04-21T19:12:08.206Z,25.83
2023-04-21T19:17:16.066Z,24.30
2023-04-21T19:22:25.358Z,19.60
2023-04-21T19:27:33.217Z,26.25
2023-04-21T19:32:41.930Z,20.05
2023-04-21T19:37:55.423Z,23.92
2023-04-21T19:43:05.324Z,22.15
2023-04-21T19:48:13.558Z,20.80
2023-04-21T19:53:24.052Z,19.20
2023-04-21T19:58:40.569Z,21.02
2023-04-21T20:03:50.009Z,19.42
2023-04-21T20:08:59.721Z,26.90
2023-04-21T20:14:07.149Z,21.83
2023-04-21T20:19:15.527Z,22.00
2023-04-21T20:24:24.668Z,26.08
2023-04-21T20:29:31.459Z,26.02
2023-04-21T20:34:40.397Z,25.48
2023-04-21T20:39:49.213Z,26.95
2023-04-21T20:44:56.078Z,26.00
2023-04-21T20:50:03.667Z,28.75
2023-04-21T20:55:13.579Z,34.20
2023-04-21T21:00:20.564Z,26.38
2023-04-21T21:05:29.356Z,28.38
2023-04-21T21:10:37.960Z,29.42
2023-04-21T21:15:44.928Z,28.45
2023-04-21T21:20:52.148Z,25.70
2023-04-21T21:26:00.681Z,37.42
2023-04-21T21:31:07.854Z,27.70
2023-04-21T21:36:14.491Z,26.45
2023-04-21T21:41:22.792Z,23.75
2023-04-21T21:46:29.867Z,25.95
2023-04-21T21:51:38.556Z,23.38
2023-04-21T21:56:46.543Z,30.98
2023-04-21T22:01:53.869Z,22.67
2023-04-21T22:07:00.463Z,20.63
2023-04-21T22:12:08.842Z,20.23
2023-04-21T22:17:16.284Z,18.92
2023-04-21T22:22:23.029Z,19.95
2023-04-21T22:27:33.532Z,20.42
2023-04-21T22:32:40.165Z,19.05
2023-04-21T22:37:46.746Z,18.25
2023-04-21T22:42:55.167Z,21.00
2023-04-21T22:48:01.768Z,18.97
2023-04-21T22:53:08.616Z,18.50
2023-04-21T22:58:16.725Z,19.88
2023-04-21T23:03:24.608Z,18.42
2023-04-21T23:08:31.261Z,19.23
2023-04-21T23:13:40.274Z,17.08
2023-04-21T23:18:46.864Z,19.00
2023-04-21T23:23:53.881Z,17.10
2023-04-21T23:29:02.039Z,16.48
2023-04-21T23:34:08.605Z,18.70
2023-04-21T23:39:15.550Z,16.63
2023-04-21T23:44:23.621Z,15.77
2023-04-21T23:49:30.128Z,15.27
2023-04-21T23:54:36.553Z,14.90
2023-04-21T23:59:44.488Z,14.57
